sensor_id;sensor_type;location;lat;lon;timestamp;pressure;altitude;pressure_sealevel;temperature
70533;BMP180;58088;51.186;17.130;2023-07-20T00:01:27;99717.60;;;20.40
70533;BMP180;58088;51.186;17.130;2023-07-20T00:03:53;99715.20;;;20.34
70533;BMP180;58088;51.186;17.130;2023-07-20T00:06:24;99708.20;;;20.30
70533;BMP180;58088;51.186;17.130;2023-07-20T00:08:51;99717.80;;;20.30
70533;BMP180;58088;51.186;17.130;2023-07-20T00:11:17;99723.80;;;20.20
70533;BMP180;58088;51.186;17.130;2023-07-20T00:13:44;99725.80;;;20.16
70533;BMP180;58088;51.186;17.130;2023-07-20T00:16:10;99723.40;;;20.10
70533;BMP180;58088;51.186;17.130;2023-07-20T00:18:36;99722.80;;;20.00
70533;BMP180;58088;51.186;17.130;2023-07-20T00:21:03;99723.80;;;20.00
70533;BMP180;58088;51.186;17.130;2023-07-20T00:23:29;99724.00;;;20.00
70533;BMP180;58088;51.186;17.130;2023-07-20T00:25:56;99729.40;;;19.90
70533;BMP180;58088;51.186;17.130;2023-07-20T00:28:22;99740.60;;;19.90
70533;BMP180;58088;51.186;17.130;2023-07-20T00:30:51;99743.40;;;19.90
70533;BMP180;58088;51.186;17.130;2023-07-20T00:33:18;99747.60;;;19.84
70533;BMP180;58088;51.186;17.130;2023-07-20T00:35:45;99752.40;;;19.80
70533;BMP180;58088;51.186;17.130;2023-07-20T00:38:11;99757.80;;;19.78
70533;BMP180;58088;51.186;17.130;2023-07-20T00:40:39;99763.80;;;19.70
70533;BMP180;58088;51.186;17.130;2023-07-20T00:43:06;99742.20;;;19.70
70533;BMP180;58088;51.186;17.130;2023-07-20T00:45:34;99751.40;;;19.60
70533;BMP180;58088;51.186;17.130;2023-07-20T00:48:06;99759.80;;;19.60
70533;BMP180;58088;51.186;17.130;2023-07-20T00:50:34;99771.00;;;19.60
70533;BMP180;58088;51.186;17.130;2023-07-20T00:53:04;99765.40;;;19.50
70533;BMP180;58088;51.186;17.130;2023-07-20T00:55:34;99758.00;;;19.50
70533;BMP180;58088;51.186;17.130;2023-07-20T00:58:02;99752.80;;;19.50
70533;BMP180;58088;51.186;17.130;2023-07-20T01:00:30;99726.60;;;19.40
70533;BMP180;58088;51.186;17.130;2023-07-20T01:02:58;99717.80;;;19.48
70533;BMP180;58088;51.186;17.130;2023-07-20T01:05:38;99720.20;;;19.50
70533;BMP180;58088;51.186;17.130;2023-07-20T01:08:27;99729.00;;;19.50
70533;BMP180;58088;51.186;17.130;2023-07-20T01:11:11;99724.40;;;19.50
70533;BMP180;58088;51.186;17.130;2023-07-20T01:13:39;99727.80;;;19.50
70533;BMP180;58088;51.186;17.130;2023-07-20T01:16:06;99729.80;;;19.50
70533;BMP180;58088;51.186;17.130;2023-07-20T01:18:32;99732.60;;;19.50
70533;BMP180;58088;51.186;17.130;2023-07-20T01:21:05;99722.60;;;19.44
70533;BMP180;58088;51.186;17.130;2023-07-20T01:24:53;99717.00;;;19.50
70533;BMP180;58088;51.186;17.130;2023-07-20T01:32:55;99717.60;;;19.40
70533;BMP180;58088;51.186;17.130;2023-07-20T01:35:27;99716.80;;;19.50
70533;BMP180;58088;51.186;17.130;2023-07-20T01:37:55;99719.20;;;19.48
70533;BMP180;58088;51.186;17.130;2023-07-20T01:40:24;99722.40;;;19.50
70533;BMP180;58088;51.186;17.130;2023-07-20T01:42:53;99715.20;;;19.50
70533;BMP180;58088;51.186;17.130;2023-07-20T01:45:19;99719.40;;;19.50
70533;BMP180;58088;51.186;17.130;2023-07-20T01:47:46;99720.60;;;19.50
70533;BMP180;58088;51.186;17.130;2023-07-20T01:50:12;99721.00;;;19.50
70533;BMP180;58088;51.186;17.130;2023-07-20T01:52:38;99721.00;;;19.50
70533;BMP180;58088;51.186;17.130;2023-07-20T01:55:05;99720.40;;;19.50
70533;BMP180;58088;51.186;17.130;2023-07-20T01:57:32;99715.60;;;19.40
70533;BMP180;58088;51.186;17.130;2023-07-20T01:59:58;99718.40;;;19.40
70533;BMP180;58088;51.186;17.130;2023-07-20T02:02:26;99719.00;;;19.32
70533;BMP180;58088;51.186;17.130;2023-07-20T02:05:06;99713.20;;;19.30
70533;BMP180;58088;51.186;17.130;2023-07-20T02:07:33;99708.60;;;19.30
70533;BMP180;58088;51.186;17.130;2023-07-20T02:09:59;99715.20;;;19.28
70533;BMP180;58088;51.186;17.130;2023-07-20T02:12:25;99716.40;;;19.20
70533;BMP180;58088;51.186;17.130;2023-07-20T02:14:51;99719.00;;;19.20
70533;BMP180;58088;51.186;17.130;2023-07-20T02:17:17;99719.60;;;19.20
70533;BMP180;58088;51.186;17.130;2023-07-20T02:19:43;99716.00;;;19.20
70533;BMP180;58088;51.186;17.130;2023-07-20T02:22:09;99723.20;;;19.14
70533;BMP180;58088;51.186;17.130;2023-07-20T02:24:35;99718.40;;;19.10
70533;BMP180;58088;51.186;17.130;2023-07-20T02:27:02;99718.60;;;19.10
70533;BMP180;58088;51.186;17.130;2023-07-20T02:29:28;99721.20;;;19.10
70533;BMP180;58088;51.186;17.130;2023-07-20T02:31:54;99713.40;;;19.08
70533;BMP180;58088;51.186;17.130;2023-07-20T02:34:20;99715.00;;;19.00
70533;BMP180;58088;51.186;17.130;2023-07-20T02:36:46;99716.60;;;19.00
70533;BMP180;58088;51.186;17.130;2023-07-20T02:39:12;99716.20;;;19.00
70533;BMP180;58088;51.186;17.130;2023-07-20T02:41:38;99713.40;;;19.00
70533;BMP180;58088;51.186;17.130;2023-07-20T02:44:04;99720.20;;;19.00
70533;BMP180;58088;51.186;17.130;2023-07-20T02:46:30;99711.60;;;18.90
70533;BMP180;58088;51.186;17.130;2023-07-20T02:48:58;99718.40;;;18.90
70533;BMP180;58088;51.186;17.130;2023-07-20T02:51:24;99717.40;;;18.84
70533;BMP180;58088;51.186;17.130;2023-07-20T02:53:50;99719.20;;;18.80
70533;BMP180;58088;51.186;17.130;2023-07-20T02:56:16;99726.80;;;18.80
70533;BMP180;58088;51.186;17.130;2023-07-20T02:58:43;99721.40;;;18.78
70533;BMP180;58088;51.186;17.130;2023-07-20T03:01:12;99724.00;;;18.70
70533;BMP180;58088;51.186;17.130;2023-07-20T03:03:38;99717.20;;;18.70
70533;BMP180;58088;51.186;17.130;2023-07-20T03:06:05;99715.00;;;18.62
70533;BMP180;58088;51.186;17.130;2023-07-20T03:08:32;99714.40;;;18.60
70533;BMP180;58088;51.186;17.130;2023-07-20T03:10:58;99718.40;;;18.60
70533;BMP180;58088;51.186;17.130;2023-07-20T03:13:24;99718.80;;;18.60
70533;BMP180;58088;51.186;17.130;2023-07-20T03:15:54;99719.60;;;18.60
70533;BMP180;58088;51.186;17.130;2023-07-20T03:18:22;99718.20;;;18.50
70533;BMP180;58088;51.186;17.130;2023-07-20T03:20:48;99718.80;;;18.50
70533;BMP180;58088;51.186;17.130;2023-07-20T03:23:14;99725.40;;;18.50
70533;BMP180;58088;51.186;17.130;2023-07-20T03:25:41;99724.40;;;18.50
70533;BMP180;58088;51.186;17.130;2023-07-20T03:28:08;99726.20;;;18.50
70533;BMP180;58088;51.186;17.130;2023-07-20T03:30:34;99730.60;;;18.50
70533;BMP180;58088;51.186;17.130;2023-07-20T03:33:01;99728.00;;;18.50
70533;BMP180;58088;51.186;17.130;2023-07-20T03:35:29;99730.60;;;18.50
70533;BMP180;58088;51.186;17.130;2023-07-20T03:37:57;99728.00;;;18.40
70533;BMP180;58088;51.186;17.130;2023-07-20T03:40:23;99723.80;;;18.40
70533;BMP180;58088;51.186;17.130;2023-07-20T03:42:51;99722.00;;;18.40
70533;BMP180;58088;51.186;17.130;2023-07-20T03:45:17;99726.00;;;18.40
70533;BMP180;58088;51.186;17.130;2023-07-20T03:47:44;99728.20;;;18.40
70533;BMP180;58088;51.186;17.130;2023-07-20T03:50:10;99736.20;;;18.34
70533;BMP180;58088;51.186;17.130;2023-07-20T03:52:37;99729.20;;;18.36
70533;BMP180;58088;51.186;17.130;2023-07-20T03:55:03;99717.60;;;18.38
70533;BMP180;58088;51.186;17.130;2023-07-20T03:57:30;99718.00;;;18.40
70533;BMP180;58088;51.186;17.130;2023-07-20T03:59:58;99716.80;;;18.40
70533;BMP180;58088;51.186;17.130;2023-07-20T04:02:25;99731.00;;;18.40
70533;BMP180;58088;51.186;17.130;2023-07-20T04:04:51;99738.80;;;18.40
70533;BMP180;58088;51.186;17.130;2023-07-20T04:07:18;99731.60;;;18.40
70533;BMP180;58088;51.186;17.130;2023-07-20T04:09:44;99725.40;;;18.50
70533;BMP180;58088;51.186;17.130;2023-07-20T04:12:10;99723.00;;;18.50
70533;BMP180;58088;51.186;17.130;2023-07-20T04:14:37;99720.00;;;18.64
70533;BMP180;58088;51.186;17.130;2023-07-20T04:17:03;99718.60;;;19.04
70533;BMP180;58088;51.186;17.130;2023-07-20T04:19:30;99720.60;;;19.50
70533;BMP180;58088;51.186;17.130;2023-07-20T04:21:57;99728.40;;;19.94
70533;BMP180;58088;51.186;17.130;2023-07-20T04:24:23;99728.80;;;20.30
70533;BMP180;58088;51.186;17.130;2023-07-20T04:26:49;99732.00;;;20.68
70533;BMP180;58088;51.186;17.130;2023-07-20T04:29:15;99746.00;;;20.90
70533;BMP180;58088;51.186;17.130;2023-07-20T04:31:43;99748.20;;;21.16
70533;BMP180;58088;51.186;17.130;2023-07-20T04:34:11;99751.60;;;21.30
70533;BMP180;58088;51.186;17.130;2023-07-20T04:36:38;99748.20;;;21.30
70533;BMP180;58088;51.186;17.130;2023-07-20T04:39:05;99755.00;;;21.10
70533;BMP180;58088;51.186;17.130;2023-07-20T04:41:37;99763.80;;;21.00
70533;BMP180;58088;51.186;17.130;2023-07-20T04:44:04;99762.00;;;20.80
70533;BMP180;58088;51.186;17.130;2023-07-20T04:46:31;99760.80;;;20.70
70533;BMP180;58088;51.186;17.130;2023-07-20T04:48:58;99761.60;;;20.70
70533;BMP180;58088;51.186;17.130;2023-07-20T04:51:26;99762.00;;;21.00
70533;BMP180;58088;51.186;17.130;2023-07-20T04:53:54;99765.20;;;21.38
70533;BMP180;58088;51.186;17.130;2023-07-20T04:56:21;99777.20;;;21.70
70533;BMP180;58088;51.186;17.130;2023-07-20T04:58:49;99772.00;;;21.82
70533;BMP180;58088;51.186;17.130;2023-07-20T05:01:16;99773.20;;;21.70
70533;BMP180;58088;51.186;17.130;2023-07-20T05:03:43;99768.20;;;21.58
70533;BMP180;58088;51.186;17.130;2023-07-20T05:06:10;99776.20;;;21.40
70533;BMP180;58088;51.186;17.130;2023-07-20T05:08:36;99779.20;;;21.40
70533;BMP180;58088;51.186;17.130;2023-07-20T05:11:02;99780.60;;;21.22
70533;BMP180;58088;51.186;17.130;2023-07-20T05:13:28;99781.40;;;21.10
70533;BMP180;58088;51.186;17.130;2023-07-20T05:15:54;99783.00;;;21.02
70533;BMP180;58088;51.186;17.130;2023-07-20T05:18:22;99786.20;;;21.10
70533;BMP180;58088;51.186;17.130;2023-07-20T05:20:50;99786.20;;;21.28
70533;BMP180;58088;51.186;17.130;2023-07-20T05:23:20;99786.40;;;21.92
70533;BMP180;58088;51.186;17.130;2023-07-20T05:25:53;99795.20;;;22.50
70533;BMP180;58088;51.186;17.130;2023-07-20T05:28:19;99811.00;;;22.70
70533;BMP180;58088;51.186;17.130;2023-07-20T05:30:46;99808.60;;;22.70
70533;BMP180;58088;51.186;17.130;2023-07-20T05:33:12;99806.80;;;22.60
70533;BMP180;58088;51.186;17.130;2023-07-20T05:35:38;99807.80;;;22.50
70533;BMP180;58088;51.186;17.130;2023-07-20T05:38:04;99814.00;;;22.40
70533;BMP180;58088;51.186;17.130;2023-07-20T05:40:32;99826.60;;;22.20
70533;BMP180;58088;51.186;17.130;2023-07-20T05:42:58;99816.00;;;22.00
70533;BMP180;58088;51.186;17.130;2023-07-20T05:45:26;99817.00;;;21.90
70533;BMP180;58088;51.186;17.130;2023-07-20T05:47:52;99824.00;;;21.80
70533;BMP180;58088;51.186;17.130;2023-07-20T05:50:18;99825.00;;;21.60
70533;BMP180;58088;51.186;17.130;2023-07-20T05:52:44;99827.60;;;21.44
70533;BMP180;58088;51.186;17.130;2023-07-20T05:55:11;99827.40;;;21.40
70533;BMP180;58088;51.186;17.130;2023-07-20T05:57:37;99821.80;;;21.56
70533;BMP180;58088;51.186;17.130;2023-07-20T06:00:08;99814.20;;;22.00
70533;BMP180;58088;51.186;17.130;2023-07-20T06:02:41;99818.20;;;22.20
70533;BMP180;58088;51.186;17.130;2023-07-20T06:05:09;99815.20;;;22.20
70533;BMP180;58088;51.186;17.130;2023-07-20T06:07:38;99819.60;;;22.10
70533;BMP180;58088;51.186;17.130;2023-07-20T06:10:05;99817.40;;;22.04
70533;BMP180;58088;51.186;17.130;2023-07-20T06:12:32;99817.00;;;21.90
70533;BMP180;58088;51.186;17.130;2023-07-20T06:15:27;99823.80;;;21.80
70533;BMP180;58088;51.186;17.130;2023-07-20T06:17:55;99820.00;;;21.96
70533;BMP180;58088;51.186;17.130;2023-07-20T06:20:24;99827.80;;;22.56
70533;BMP180;58088;51.186;17.130;2023-07-20T06:22:50;99832.80;;;23.24
70533;BMP180;58088;51.186;17.130;2023-07-20T06:25:17;99839.20;;;23.40
70533;BMP180;58088;51.186;17.130;2023-07-20T06:27:43;99838.60;;;23.30
70533;BMP180;58088;51.186;17.130;2023-07-20T06:30:10;99834.20;;;23.30
70533;BMP180;58088;51.186;17.130;2023-07-20T06:32:38;99837.60;;;23.38
70533;BMP180;58088;51.186;17.130;2023-07-20T06:35:05;99839.80;;;23.40
70533;BMP180;58088;51.186;17.130;2023-07-20T06:37:35;99837.80;;;23.30
70533;BMP180;58088;51.186;17.130;2023-07-20T06:40:03;99839.00;;;23.20
70533;BMP180;58088;51.186;17.130;2023-07-20T06:42:31;99845.20;;;23.20
70533;BMP180;58088;51.186;17.130;2023-07-20T06:44:57;99843.00;;;23.04
70533;BMP180;58088;51.186;17.130;2023-07-20T06:47:24;99848.00;;;22.90
70533;BMP180;58088;51.186;17.130;2023-07-20T06:49:50;99857.60;;;22.70
70533;BMP180;58088;51.186;17.130;2023-07-20T06:52:17;99852.20;;;22.70
70533;BMP180;58088;51.186;17.130;2023-07-20T06:54:43;99847.00;;;22.60
70533;BMP180;58088;51.186;17.130;2023-07-20T06:57:09;99847.20;;;22.56
70533;BMP180;58088;51.186;17.130;2023-07-20T06:59:35;99849.40;;;22.60
70533;BMP180;58088;51.186;17.130;2023-07-20T07:02:01;99851.80;;;22.60
70533;BMP180;58088;51.186;17.130;2023-07-20T07:04:28;99857.00;;;22.70
70533;BMP180;58088;51.186;17.130;2023-07-20T07:06:54;99854.20;;;22.90
70533;BMP180;58088;51.186;17.130;2023-07-20T07:09:20;99852.40;;;23.00
70533;BMP180;58088;51.186;17.130;2023-07-20T07:11:47;99855.80;;;23.08
70533;BMP180;58088;51.186;17.130;2023-07-20T07:14:13;99850.80;;;23.32
70533;BMP180;58088;51.186;17.130;2023-07-20T07:16:39;99853.00;;;23.84
70533;BMP180;58088;51.186;17.130;2023-07-20T07:19:05;99855.20;;;24.20
70533;BMP180;58088;51.186;17.130;2023-07-20T07:21:34;99855.40;;;24.50
70533;BMP180;58088;51.186;17.130;2023-07-20T07:24:00;99855.00;;;24.50
70533;BMP180;58088;51.186;17.130;2023-07-20T07:26:26;99854.00;;;24.60
70533;BMP180;58088;51.186;17.130;2023-07-20T07:28:52;99859.00;;;24.56
70533;BMP180;58088;51.186;17.130;2023-07-20T07:31:18;99860.80;;;24.30
70533;BMP180;58088;51.186;17.130;2023-07-20T07:33:45;99857.20;;;24.12
70533;BMP180;58088;51.186;17.130;2023-07-20T07:36:11;99864.40;;;23.90
70533;BMP180;58088;51.186;17.130;2023-07-20T07:38:37;99863.40;;;23.90
70533;BMP180;58088;51.186;17.130;2023-07-20T07:41:04;99868.60;;;24.00
70533;BMP180;58088;51.186;17.130;2023-07-20T07:43:30;99865.60;;;24.20
70533;BMP180;58088;51.186;17.130;2023-07-20T07:45:56;99863.80;;;24.50
70533;BMP180;58088;51.186;17.130;2023-07-20T07:48:23;99863.80;;;24.88
70533;BMP180;58088;51.186;17.130;2023-07-20T07:50:51;99866.80;;;25.22
70533;BMP180;58088;51.186;17.130;2023-07-20T07:53:17;99874.40;;;25.40
70533;BMP180;58088;51.186;17.130;2023-07-20T07:55:44;99877.20;;;25.20
70533;BMP180;58088;51.186;17.130;2023-07-20T07:58:10;99871.00;;;24.80
70533;BMP180;58088;51.186;17.130;2023-07-20T08:00:36;99870.80;;;24.68
70533;BMP180;58088;51.186;17.130;2023-07-20T08:03:02;99868.20;;;24.70
70533;BMP180;58088;51.186;17.130;2023-07-20T08:05:28;99868.00;;;24.64
70533;BMP180;58088;51.186;17.130;2023-07-20T08:07:55;99867.00;;;24.50
70533;BMP180;58088;51.186;17.130;2023-07-20T08:10:21;99869.60;;;24.40
70533;BMP180;58088;51.186;17.130;2023-07-20T08:12:48;99871.20;;;24.30
70533;BMP180;58088;51.186;17.130;2023-07-20T08:15:14;99874.20;;;24.40
70533;BMP180;58088;51.186;17.130;2023-07-20T08:17:41;99876.40;;;24.60
70533;BMP180;58088;51.186;17.130;2023-07-20T08:20:10;99879.20;;;24.60
70533;BMP180;58088;51.186;17.130;2023-07-20T08:22:39;99873.00;;;24.50
70533;BMP180;58088;51.186;17.130;2023-07-20T08:25:06;99875.20;;;24.50
70533;BMP180;58088;51.186;17.130;2023-07-20T08:27:33;99869.60;;;24.52
70533;BMP180;58088;51.186;17.130;2023-07-20T08:29:59;99869.00;;;24.60
70533;BMP180;58088;51.186;17.130;2023-07-20T08:32:26;99867.60;;;24.60
70533;BMP180;58088;51.186;17.130;2023-07-20T08:34:52;99866.00;;;24.80
70533;BMP180;58088;51.186;17.130;2023-07-20T08:37:19;99865.20;;;25.16
70533;BMP180;58088;51.186;17.130;2023-07-20T08:39:46;99867.60;;;25.54
70533;BMP180;58088;51.186;17.130;2023-07-20T08:42:14;99867.00;;;25.80
70533;BMP180;58088;51.186;17.130;2023-07-20T08:44:42;99869.40;;;25.80
70533;BMP180;58088;51.186;17.130;2023-07-20T08:47:09;99873.20;;;25.70
70533;BMP180;58088;51.186;17.130;2023-07-20T08:49:38;99879.00;;;25.60
70533;BMP180;58088;51.186;17.130;2023-07-20T08:52:06;99874.20;;;25.82
70533;BMP180;58088;51.186;17.130;2023-07-20T08:54:34;99869.40;;;26.02
70533;BMP180;58088;51.186;17.130;2023-07-20T08:57:04;99871.40;;;26.30
70533;BMP180;58088;51.186;17.130;2023-07-20T08:59:31;99870.20;;;26.20
70533;BMP180;58088;51.186;17.130;2023-07-20T09:02:00;99873.00;;;26.20
70533;BMP180;58088;51.186;17.130;2023-07-20T09:04:26;99868.20;;;26.40
70533;BMP180;58088;51.186;17.130;2023-07-20T09:06:53;99871.00;;;26.40
70533;BMP180;58088;51.186;17.130;2023-07-20T09:09:19;99880.40;;;26.20
70533;BMP180;58088;51.186;17.130;2023-07-20T09:11:51;99873.00;;;25.80
70533;BMP180;58088;51.186;17.130;2023-07-20T09:14:17;99874.60;;;25.40
70533;BMP180;58088;51.186;17.130;2023-07-20T09:16:48;99869.60;;;25.20
70533;BMP180;58088;51.186;17.130;2023-07-20T09:19:17;99872.00;;;25.30
70533;BMP180;58088;51.186;17.130;2023-07-20T09:21:46;99874.80;;;25.60
70533;BMP180;58088;51.186;17.130;2023-07-20T09:24:14;99873.00;;;25.76
70533;BMP180;58088;51.186;17.130;2023-07-20T09:26:43;99872.80;;;25.90
70533;BMP180;58088;51.186;17.130;2023-07-20T09:29:10;99867.00;;;26.02
70533;BMP180;58088;51.186;17.130;2023-07-20T09:31:37;99864.00;;;26.36
70533;BMP180;58088;51.186;17.130;2023-07-20T09:34:05;99864.80;;;26.64
70533;BMP180;58088;51.186;17.130;2023-07-20T09:36:35;99860.80;;;26.70
70533;BMP180;58088;51.186;17.130;2023-07-20T09:39:03;99861.20;;;26.90
70533;BMP180;58088;51.186;17.130;2023-07-20T09:41:42;99857.20;;;26.90
70533;BMP180;58088;51.186;17.130;2023-07-20T09:44:10;99871.00;;;26.80
70533;BMP180;58088;51.186;17.130;2023-07-20T09:46:50;99867.60;;;26.80
70533;BMP180;58088;51.186;17.130;2023-07-20T09:49:20;99863.80;;;26.70
70533;BMP180;58088;51.186;17.130;2023-07-20T09:51:46;99869.40;;;26.50
70533;BMP180;58088;51.186;17.130;2023-07-20T09:54:13;99872.00;;;26.58
70533;BMP180;58088;51.186;17.130;2023-07-20T09:56:42;99870.00;;;26.70
70533;BMP180;58088;51.186;17.130;2023-07-20T09:59:08;99861.00;;;26.90
70533;BMP180;58088;51.186;17.130;2023-07-20T10:01:36;99864.40;;;27.00
70533;BMP180;58088;51.186;17.130;2023-07-20T10:04:07;99866.00;;;27.10
70533;BMP180;58088;51.186;17.130;2023-07-20T10:06:37;99867.20;;;27.10
70533;BMP180;58088;51.186;17.130;2023-07-20T10:09:07;99866.00;;;27.20
70533;BMP180;58088;51.186;17.130;2023-07-20T10:11:36;99860.00;;;27.10
70533;BMP180;58088;51.186;17.130;2023-07-20T10:14:04;99857.00;;;27.10
70533;BMP180;58088;51.186;17.130;2023-07-20T10:16:43;99852.80;;;27.10
70533;BMP180;58088;51.186;17.130;2023-07-20T10:22:25;99846.60;;;27.10
70533;BMP180;58088;51.186;17.130;2023-07-20T10:24:52;99843.00;;;27.20
70533;BMP180;58088;51.186;17.130;2023-07-20T10:27:24;99842.00;;;27.30
70533;BMP180;58088;51.186;17.130;2023-07-20T10:29:52;99836.40;;;27.44
70533;BMP180;58088;51.186;17.130;2023-07-20T10:32:21;99845.00;;;27.30
70533;BMP180;58088;51.186;17.130;2023-07-20T10:34:56;99840.00;;;27.30
70533;BMP180;58088;51.186;17.130;2023-07-20T10:37:55;99839.20;;;27.32
70533;BMP180;58088;51.186;17.130;2023-07-20T10:40:34;99837.80;;;27.60
70533;BMP180;58088;51.186;17.130;2023-07-20T10:43:06;99840.00;;;27.60
70533;BMP180;58088;51.186;17.130;2023-07-20T10:48:14;99835.60;;;27.70
70533;BMP180;58088;51.186;17.130;2023-07-20T10:50:43;99833.80;;;27.60
70533;BMP180;58088;51.186;17.130;2023-07-20T10:53:18;99830.60;;;27.60
70533;BMP180;58088;51.186;17.130;2023-07-20T10:55:45;99828.20;;;27.60
70533;BMP180;58088;51.186;17.130;2023-07-20T10:58:16;99825.40;;;27.50
70533;BMP180;58088;51.186;17.130;2023-07-20T11:01:02;99827.20;;;27.34
70533;BMP180;58088;51.186;17.130;2023-07-20T11:03:34;99827.80;;;27.20
70533;BMP180;58088;51.186;17.130;2023-07-20T11:09:16;99824.60;;;27.44
70533;BMP180;58088;51.186;17.130;2023-07-20T11:12:13;99822.80;;;27.68
70533;BMP180;58088;51.186;17.130;2023-07-20T11:14:55;99822.20;;;27.88
70533;BMP180;58088;51.186;17.130;2023-07-20T11:17:32;99819.20;;;28.20
70533;BMP180;58088;51.186;17.130;2023-07-20T11:20:00;99812.00;;;28.40
70533;BMP180;58088;51.186;17.130;2023-07-20T11:22:27;99822.00;;;28.40
70533;BMP180;58088;51.186;17.130;2023-07-20T11:24:58;99822.60;;;28.20
70533;BMP180;58088;51.186;17.130;2023-07-20T11:27:24;99828.40;;;27.92
70533;BMP180;58088;51.186;17.130;2023-07-20T11:29:50;99845.40;;;27.58
70533;BMP180;58088;51.186;17.130;2023-07-20T11:32:23;99843.40;;;27.16
70533;BMP180;58088;51.186;17.130;2023-07-20T11:34:50;99840.20;;;26.80
70533;BMP180;58088;51.186;17.130;2023-07-20T11:37:17;99844.20;;;26.60
70533;BMP180;58088;51.186;17.130;2023-07-20T11:39:44;99844.40;;;26.44
70533;BMP180;58088;51.186;17.130;2023-07-20T11:42:11;99844.60;;;26.34
70533;BMP180;58088;51.186;17.130;2023-07-20T11:44:38;99846.20;;;26.26
70533;BMP180;58088;51.186;17.130;2023-07-20T11:47:10;99851.60;;;26.10
70533;BMP180;58088;51.186;17.130;2023-07-20T11:49:39;99855.40;;;26.00
70533;BMP180;58088;51.186;17.130;2023-07-20T11:52:16;99853.60;;;25.90
70533;BMP180;58088;51.186;17.130;2023-07-20T11:54:44;99855.40;;;25.80
70533;BMP180;58088;51.186;17.130;2023-07-20T11:57:19;99863.00;;;25.80
70533;BMP180;58088;51.186;17.130;2023-07-20T12:00:02;99866.00;;;25.86
70533;BMP180;58088;51.186;17.130;2023-07-20T12:02:32;99875.00;;;26.00
70533;BMP180;58088;51.186;17.130;2023-07-20T12:04:58;99874.20;;;26.00
70533;BMP180;58088;51.186;17.130;2023-07-20T12:07:28;99879.60;;;26.04
70533;BMP180;58088;51.186;17.130;2023-07-20T12:10:10;99881.20;;;25.90
70533;BMP180;58088;51.186;17.130;2023-07-20T12:12:41;99885.40;;;25.80
70533;BMP180;58088;51.186;17.130;2023-07-20T12:15:21;99883.80;;;25.80
70533;BMP180;58088;51.186;17.130;2023-07-20T12:17:53;99884.40;;;25.60
70533;BMP180;58088;51.186;17.130;2023-07-20T12:20:34;99889.00;;;25.68
70533;BMP180;58088;51.186;17.130;2023-07-20T12:23:09;99884.40;;;25.70
70533;BMP180;58088;51.186;17.130;2023-07-20T12:25:46;99888.40;;;25.70
70533;BMP180;58088;51.186;17.130;2023-07-20T12:28:19;99882.20;;;25.70
70533;BMP180;58088;51.186;17.130;2023-07-20T12:30:46;99876.20;;;25.80
70533;BMP180;58088;51.186;17.130;2023-07-20T12:33:17;99864.00;;;25.90
70533;BMP180;58088;51.186;17.130;2023-07-20T12:35:44;99868.60;;;25.90
70533;BMP180;58088;51.186;17.130;2023-07-20T12:38:11;99872.00;;;25.98
70533;BMP180;58088;51.186;17.130;2023-07-20T12:40:37;99869.80;;;26.00
70533;BMP180;58088;51.186;17.130;2023-07-20T12:43:04;99873.60;;;26.10
70533;BMP180;58088;51.186;17.130;2023-07-20T12:45:30;99873.60;;;26.20
70533;BMP180;58088;51.186;17.130;2023-07-20T12:47:57;99866.60;;;26.20
70533;BMP180;58088;51.186;17.130;2023-07-20T12:50:23;99858.40;;;25.94
70533;BMP180;58088;51.186;17.130;2023-07-20T12:52:49;99866.40;;;25.90
70533;BMP180;58088;51.186;17.130;2023-07-20T12:55:15;99868.80;;;25.90
70533;BMP180;58088;51.186;17.130;2023-07-20T12:57:43;99870.80;;;25.80
70533;BMP180;58088;51.186;17.130;2023-07-20T13:00:10;99871.00;;;25.70
70533;BMP180;58088;51.186;17.130;2023-07-20T13:02:38;99871.60;;;25.60
70533;BMP180;58088;51.186;17.130;2023-07-20T13:05:05;99860.20;;;25.60
70533;BMP180;58088;51.186;17.130;2023-07-20T13:07:39;99859.80;;;25.50
70533;BMP180;58088;51.186;17.130;2023-07-20T13:10:06;99861.80;;;25.40
70533;BMP180;58088;51.186;17.130;2023-07-20T13:12:34;99862.60;;;25.60
70533;BMP180;58088;51.186;17.130;2023-07-20T13:15:06;99865.00;;;25.68
70533;BMP180;58088;51.186;17.130;2023-07-20T13:17:38;99858.20;;;25.60
70533;BMP180;58088;51.186;17.130;2023-07-20T13:20:08;99867.80;;;25.60
70533;BMP180;58088;51.186;17.130;2023-07-20T13:22:40;99867.20;;;25.70
70533;BMP180;58088;51.186;17.130;2023-07-20T13:25:08;99865.80;;;25.80
70533;BMP180;58088;51.186;17.130;2023-07-20T13:27:35;99859.60;;;25.92
70533;BMP180;58088;51.186;17.130;2023-07-20T13:30:03;99864.00;;;26.12
70533;BMP180;58088;51.186;17.130;2023-07-20T13:32:33;99852.60;;;26.38
70533;BMP180;58088;51.186;17.130;2023-07-20T13:35:00;99858.60;;;26.60
70533;BMP180;58088;51.186;17.130;2023-07-20T13:37:27;99860.00;;;26.70
70533;BMP180;58088;51.186;17.130;2023-07-20T13:39:54;99860.20;;;26.54
70533;BMP180;58088;51.186;17.130;2023-07-20T13:42:21;99856.80;;;26.32
70533;BMP180;58088;51.186;17.130;2023-07-20T13:44:48;99857.20;;;26.20
70533;BMP180;58088;51.186;17.130;2023-07-20T13:47:14;99853.00;;;26.20
70533;BMP180;58088;51.186;17.130;2023-07-20T13:49:41;99854.20;;;26.30
70533;BMP180;58088;51.186;17.130;2023-07-20T13:52:07;99844.80;;;26.40
70533;BMP180;58088;51.186;17.130;2023-07-20T13:54:34;99846.00;;;26.50
70533;BMP180;58088;51.186;17.130;2023-07-20T13:57:00;99850.80;;;26.70
70533;BMP180;58088;51.186;17.130;2023-07-20T13:59:26;99846.40;;;26.70
70533;BMP180;58088;51.186;17.130;2023-07-20T14:01:52;99843.20;;;26.60
70533;BMP180;58088;51.186;17.130;2023-07-20T14:04:19;99845.60;;;26.60
70533;BMP180;58088;51.186;17.130;2023-07-20T14:06:45;99837.60;;;26.70
70533;BMP180;58088;51.186;17.130;2023-07-20T14:09:11;99838.20;;;26.70
70533;BMP180;58088;51.186;17.130;2023-07-20T14:11:38;99841.80;;;26.80
70533;BMP180;58088;51.186;17.130;2023-07-20T14:14:04;99844.80;;;26.80
70533;BMP180;58088;51.186;17.130;2023-07-20T14:16:30;99845.20;;;26.74
70533;BMP180;58088;51.186;17.130;2023-07-20T14:18:58;99842.40;;;26.80